Time;durP1;ratioP1;P1;durP2;ratioP2;P2;SDS_P1;SDS_P2;PMS_P1;PMS_P2;Temp;Humidity;BMP_temperature;BMP_pressure;BME280_temperature;BME280_humidity;BME280_pressure;Samples;Min_cycle;Max_cycle;Signal;HPM_P1;HPM_P2
2022/12/02 00:02:25;;;;;;;28.90;13.63;;;;;;;4.40;47.97;102130.03;5030921;28;20072;-72
2022/12/02 00:04:58;;;;;;;27.17;13.73;;;;;;;4.38;47.87;102118.38;5012250;28;20060;-72
2022/12/02 00:07:26;;;;;;;27.98;14.10;;;;;;;4.36;48.06;102108.53;5028948;28;20494;-72
2022/12/02 00:09:55;;;;;;;27.38;13.63;;;;;;;4.38;48.22;102109.38;5047376;28;20509;-71
2022/12/02 00:12:25;;;;;;;25.90;13.07;;;;;;;4.38;47.95;102109.38;5049120;28;20406;-71
2022/12/02 00:14:57;;;;;;;27.35;13.25;;;;;;;4.38;47.99;102094.00;5048044;28;20053;-71
2022/12/02 00:17:25;;;;;;;26.38;13.15;;;;;;;4.33;48.23;102096.00;5033168;28;20045;-71
2022/12/02 00:19:54;;;;;;;32.40;15.77;;;;;;;4.35;48.05;102099.53;5022118;28;20054;-71
2022/12/02 00:22:22;;;;;;;30.15;15.15;;;;;;;4.35;48.16;102096.81;5048603;28;20048;-71
2022/12/02 00:24:50;;;;;;;28.55;13.30;;;;;;;4.34;48.50;102088.75;5029727;28;20505;-71
2022/12/02 00:27:18;;;;;;;31.92;15.10;;;;;;;4.36;48.30;102100.41;5031111;28;20563;-71
2022/12/02 00:29:46;;;;;;;30.65;14.55;;;;;;;4.33;48.22;102100.53;5048562;28;20045;-71
2022/12/02 00:32:14;;;;;;;29.38;14.88;;;;;;;4.32;48.21;102096.94;5017861;28;20049;-71
2022/12/02 00:34:41;;;;;;;29.63;15.20;;;;;;;4.31;48.23;102089.75;5046882;28;20037;-71
2022/12/02 00:37:11;;;;;;;30.58;15.38;;;;;;;4.33;48.13;102089.69;5027361;28;20064;-71
2022/12/02 00:39:38;;;;;;;30.05;14.38;;;;;;;4.32;48.18;102096.94;5011913;28;20071;-71
2022/12/02 00:42:06;;;;;;;31.33;14.73;;;;;;;4.30;48.28;102088.00;5048833;28;20049;-71
2022/12/02 00:47:20;;;;;;;30.30;14.45;;;;;;;4.29;48.25;102078.13;5041212;28;20052;-71
2022/12/02 00:49:48;;;;;;;27.92;13.77;;;;;;;4.30;48.13;102081.72;5036555;28;20044;-71
2022/12/02 00:52:17;;;;;;;31.15;15.80;;;;;;;4.29;48.20;102078.13;5030947;28;20493;-71
2022/12/02 00:54:45;;;;;;;30.00;14.50;;;;;;;4.29;47.99;102070.00;5030290;28;20049;-72
2022/12/02 00:57:12;;;;;;;26.90;13.60;;;;;;;4.30;48.08;102079.88;5048679;28;20044;-72
2022/12/02 00:59:40;;;;;;;27.65;13.90;;;;;;;4.30;48.06;102065.44;5028822;28;20037;-72
2022/12/02 01:02:08;;;;;;;26.75;13.13;;;;;;;4.30;48.11;102069.03;5021366;28;20065;-73
2022/12/02 01:04:36;;;;;;;26.67;13.65;;;;;;;4.30;48.27;102071.75;5044308;28;20067;-72
2022/12/02 01:07:04;;;;;;;27.30;13.13;;;;;;;4.31;48.06;102069.91;5034653;28;20505;-72
2022/12/02 01:09:34;;;;;;;25.35;13.18;;;;;;;4.32;48.10;102066.25;5039558;28;20059;-72
2022/12/02 01:12:02;;;;;;;26.15;13.30;;;;;;;4.31;48.00;102062.66;5031037;28;20513;-73
2022/12/02 01:14:30;;;;;;;23.70;12.48;;;;;;;4.32;47.99;102060.81;5046837;28;20033;-72
2022/12/02 01:16:58;;;;;;;24.48;11.70;;;;;;;4.32;48.09;102052.69;5047512;28;20049;-72
2022/12/02 01:19:26;;;;;;;22.38;11.65;;;;;;;4.33;48.08;102057.16;5016015;28;20044;-73
2022/12/02 01:21:54;;;;;;;24.60;11.50;;;;;;;4.34;48.17;102048.09;5048678;28;20282;-73
2022/12/02 01:24:24;;;;;;;22.98;12.25;;;;;;;4.34;48.30;102048.09;5029124;28;20120;-73
2022/12/02 01:26:53;;;;;;;28.92;13.70;;;;;;;4.36;48.27;102051.63;5022956;28;20037;-72
2022/12/02 01:29:21;;;;;;;25.55;12.60;;;;;;;4.36;48.22;102057.06;5036982;28;20413;-72
2022/12/02 01:31:49;;;;;;;26.67;13.00;;;;;;;4.35;48.38;102045.31;5063876;28;20505;-72
2022/12/02 01:34:17;;;;;;;27.75;14.07;;;;;;;4.35;48.15;102048.03;5053843;28;20047;-72
2022/12/02 01:36:44;;;;;;;28.67;14.65;;;;;;;4.35;48.24;102058.88;5035212;28;20052;-73
2022/12/02 01:39:12;;;;;;;25.02;14.15;;;;;;;4.36;48.19;102057.06;5029490;28;20536;-73
2022/12/02 01:41:40;;;;;;;32.83;15.60;;;;;;;4.35;48.17;102049.88;5013072;28;20077;-73
2022/12/02 01:44:10;;;;;;;29.90;15.00;;;;;;;4.35;47.90;102050.75;5019968;28;20421;-73
2022/12/02 01:46:37;;;;;;;27.85;12.88;;;;;;;4.35;48.27;102050.75;5051647;28;20052;-72
2022/12/02 01:49:05;;;;;;;25.05;13.65;;;;;;;4.33;48.28;102046.34;5033067;28;20335;-72
2022/12/02 01:51:33;;;;;;;25.38;12.63;;;;;;;4.35;48.30;102042.63;5033208;28;20037;-72
2022/12/02 01:54:01;;;;;;;22.38;11.13;;;;;;;4.36;48.42;102043.50;5066395;28;20164;-73
2022/12/02 01:56:29;;;;;;;27.17;13.15;;;;;;;4.36;48.49;102043.50;5051962;28;20044;-72
2022/12/02 01:58:57;;;;;;;25.48;13.48;;;;;;;4.36;48.34;102047.09;5033021;28;20049;-72
2022/12/02 02:01:28;;;;;;;22.42;11.63;;;;;;;4.39;48.17;102046.06;5051011;28;20098;-72
2022/12/02 02:03:57;;;;;;;23.00;11.88;;;;;;;4.38;48.40;102049.75;5039975;28;20552;-72
2022/12/02 02:06:26;;;;;;;25.20;11.40;;;;;;;4.39;48.48;102054.19;5049893;28;20045;-72
2022/12/02 02:08:55;;;;;;;24.90;12.23;;;;;;;4.38;48.28;102047.03;5044142;28;20049;-72
2022/12/02 02:11:25;;;;;;;27.48;12.93;;;;;;;4.39;48.07;102046.06;5047073;28;20124;-72
2022/12/02 02:13:58;;;;;;;23.50;11.70;;;;;;;4.40;48.43;102051.41;5043965;28;21317;-72
2022/12/02 02:16:28;;;;;;;22.33;11.57;;;;;;;4.41;48.15;102050.47;5036345;28;20064;-72
2022/12/02 02:18:56;;;;;;;25.67;12.60;;;;;;;4.40;48.23;102046.00;5031788;28;20509;-72
2022/12/02 02:21:29;;;;;;;23.05;11.77;;;;;;;4.41;48.20;102045.06;5043831;28;20057;-72
2022/12/02 02:23:59;;;;;;;24.48;12.07;;;;;;;4.43;48.13;102031.44;5045567;28;20405;-72
2022/12/02 02:26:28;;;;;;;24.25;12.85;;;;;;;4.40;48.30;102032.44;5052278;28;20037;-72
2022/12/02 02:28:56;;;;;;;23.27;12.02;;;;;;;4.41;48.20;102028.78;5040782;28;20486;-72
2022/12/02 02:31:24;;;;;;;24.45;12.30;;;;;;;4.39;48.26;102025.25;5023793;28;20053;-72
2022/12/02 02:33:52;;;;;;;23.88;12.68;;;;;;;4.39;48.24;102013.53;5028905;28;20049;-72
2022/12/02 02:36:21;;;;;;;22.48;11.85;;;;;;;4.40;48.32;102012.59;5050794;28;20098;-72
2022/12/02 02:38:49;;;;;;;22.80;11.65;;;;;;;4.40;48.28;102020.72;5032765;28;20076;-73
2022/12/02 02:41:19;;;;;;;20.20;10.43;;;;;;;4.42;48.06;102019.72;5032959;28;20327;-72
2022/12/02 02:43:47;;;;;;;20.35;10.27;;;;;;;4.40;48.28;102008.06;5021868;28;20132;-72
2022/12/02 02:46:16;;;;;;;22.05;11.75;;;;;;;4.41;48.26;102012.53;5074493;28;20041;-71
2022/12/02 02:48:45;;;;;;;23.00;11.27;;;;;;;4.42;48.08;102013.41;5050853;28;20187;-72
2022/12/02 02:51:14;;;;;;;22.00;10.80;;;;;;;4.42;48.16;102008.00;5031374;28;20048;-72
2022/12/02 02:53:44;;;;;;;20.85;11.27;;;;;;;4.42;48.22;102002.56;5057591;28;20072;-71
2022/12/02 02:56:13;;;;;;;20.63;11.27;;;;;;;4.42;48.13;102000.75;5039723;28;20052;-72
2022/12/02 02:58:43;;;;;;;20.48;10.80;;;;;;;4.43;47.87;102004.34;5026629;28;20053;-72
2022/12/02 03:01:14;;;;;;;23.58;12.05;;;;;;;4.41;47.92;101995.38;5026027;28;20048;-72
2022/12/02 03:03:51;;;;;;;21.73;11.43;;;;;;;4.40;47.78;101996.31;5032649;28;20043;-72
2022/12/02 03:06:21;;;;;;;21.05;10.70;;;;;;;4.38;48.12;102004.56;5031905;28;20342;-72
2022/12/02 03:08:50;;;;;;;19.92;11.52;;;;;;;4.37;47.91;101993.78;5010217;28;20037;-72
2022/12/02 03:11:18;;;;;;;21.02;11.27;;;;;;;4.38;48.15;101987.41;5032654;28;20133;-72
2022/12/02 03:13:50;;;;;;;21.77;11.07;;;;;;;4.36;47.76;101990.19;5050535;28;20078;-72
2022/12/02 03:16:21;;;;;;;21.92;12.18;;;;;;;4.32;47.96;101993.94;5048848;28;20090;-72
2022/12/02 03:18:52;;;;;;;25.63;12.23;;;;;;;4.32;47.89;101993.06;5032606;28;20118;-72
2022/12/02 03:21:21;;;;;;;28.58;13.25;;;;;;;4.29;47.99;101972.44;5037131;28;20124;-72
2022/12/02 03:23:52;;;;;;;28.73;13.75;;;;;;;4.28;47.81;101984.22;5031624;28;20047;-72
2022/12/02 03:26:20;;;;;;;26.40;13.77;;;;;;;4.26;48.14;101982.50;5031920;28;20438;-72
2022/12/02 03:28:50;;;;;;;25.23;12.73;;;;;;;4.26;48.11;101980.69;5035026;28;20049;-72
2022/12/02 03:31:18;;;;;;;30.02;14.10;;;;;;;4.25;48.01;101972.59;5038517;28;20057;-72
2022/12/02 03:33:46;;;;;;;30.10;13.35;;;;;;;4.24;47.82;101969.03;5049152;28;20041;-72
2022/12/02 03:36:17;;;;;;;25.95;13.65;;;;;;;4.23;48.05;101964.53;5040384;28;20136;-72
2022/12/02 03:38:46;;;;;;;27.25;14.05;;;;;;;4.23;48.26;101966.38;5046447;28;20037;-72
2022/12/02 03:41:14;;;;;;;25.25;13.55;;;;;;;4.21;47.79;101962.88;5031131;28;20463;-72
2022/12/02 03:43:42;;;;;;;26.73;13.15;;;;;;;4.22;48.21;101964.63;5044720;28;20107;-72
2022/12/02 03:46:12;;;;;;;25.70;13.40;;;;;;;4.23;47.98;101963.66;5029903;28;20107;-72
2022/12/02 03:48:41;;;;;;;26.05;13.23;;;;;;;4.20;48.30;101952.97;5022115;28;20147;-72
2022/12/02 03:51:11;;;;;;;27.60;14.18;;;;;;;4.20;48.26;101959.28;5046146;28;20053;-71
2022/12/02 03:53:39;;;;;;;29.13;14.18;;;;;;;4.18;48.24;101958.47;5036529;28;20116;-72
2022/12/02 03:56:09;;;;;;;27.27;13.05;;;;;;;4.20;48.19;101952.97;5047774;28;20103;-72
2022/12/02 03:58:39;;;;;;;25.83;13.23;;;;;;;4.18;48.35;101960.28;5055798;28;20044;-72
2022/12/02 04:01:07;;;;;;;24.20;11.68;;;;;;;4.19;48.48;101953.91;5030878;28;20049;-71
2022/12/02 04:03:36;;;;;;;24.17;12.00;;;;;;;4.21;48.35;101952.03;5049423;28;20069;-72
2022/12/02 04:06:04;;;;;;;24.95;12.52;;;;;;;4.20;48.21;101950.25;5030549;28;20065;-72
2022/12/02 04:08:32;;;;;;;24.40;12.60;;;;;;;4.20;48.49;101950.25;5048805;28;20040;-72
2022/12/02 04:11:00;;;;;;;24.10;12.80;;;;;;;4.20;48.46;101944.84;5016914;28;20053;-72
2022/12/02 04:13:28;;;;;;;29.30;14.32;;;;;;;4.20;48.50;101943.03;5049694;28;20378;-72
2022/12/02 04:15:56;;;;;;;27.30;13.65;;;;;;;4.22;48.50;101937.53;5046895;28;20056;-72
2022/12/02 04:18:24;;;;;;;28.05;13.85;;;;;;;4.23;48.65;101936.56;5049087;28;20533;-72
2022/12/02 04:20:53;;;;;;;28.05;14.02;;;;;;;4.24;48.69;101943.75;5048569;28;21362;-72
2022/12/02 04:23:21;;;;;;;31.52;15.27;;;;;;;4.23;48.58;101933.84;5021757;28;20399;-72
2022/12/02 04:25:49;;;;;;;24.35;12.82;;;;;;;4.25;48.51;101935.56;5023104;28;20065;-72
2022/12/02 04:28:18;;;;;;;28.48;13.10;;;;;;;4.25;48.71;101940.97;5021205;28;20048;-72
2022/12/02 04:30:45;;;;;;;31.05;14.90;;;;;;;4.25;48.76;101942.81;5034292;28;20053;-72
2022/12/02 04:33:13;;;;;;;29.05;15.20;;;;;;;4.24;48.49;101944.63;5048903;28;20555;-72
2022/12/02 04:35:41;;;;;;;30.42;15.20;;;;;;;4.23;48.48;101940.16;5029883;28;20049;-72
2022/12/02 04:38:10;;;;;;;32.45;15.70;;;;;;;4.23;48.44;101950.09;5048737;28;20044;-72
2022/12/02 04:40:39;;;;;;;34.03;16.00;;;;;;;4.20;48.32;101942.13;5053544;28;20041;-72
2022/12/02 04:43:07;;;;;;;34.03;16.35;;;;;;;4.16;48.58;101947.69;5055591;28;20402;-72
2022/12/02 04:45:35;;;;;;;32.75;15.73;;;;;;;4.16;48.48;101935.97;5047197;28;20037;-72
2022/12/02 04:48:03;;;;;;;33.33;15.38;;;;;;;4.15;48.30;101934.19;5030341;28;20049;-72
2022/12/02 04:50:31;;;;;;;32.08;15.55;;;;;;;4.13;48.40;101925.28;5047846;28;20068;-72
2022/12/02 04:52:59;;;;;;;30.65;14.43;;;;;;;4.13;48.75;101920.75;5047994;28;20048;-72
2022/12/02 04:55:31;;;;;;;29.88;14.13;;;;;;;4.14;48.60;101916.22;5047965;28;20068;-72
2022/12/02 04:58:01;;;;;;;29.35;13.50;;;;;;;4.12;48.68;101916.25;5019278;28;20061;-72
2022/12/02 05:00:29;;;;;;;29.85;13.73;;;;;;;4.13;48.65;101923.44;5050016;28;20053;-72
2022/12/02 05:02:57;;;;;;;31.23;15.13;;;;;;;4.13;48.75;101914.44;5043946;28;20045;-72
2022/12/02 05:05:25;;;;;;;30.88;14.70;;;;;;;4.13;48.68;101909.91;5047340;28;20055;-71
2022/12/02 05:07:53;;;;;;;27.73;13.10;;;;;;;4.15;48.78;101912.50;5035515;28;20048;-72
2022/12/02 05:10:21;;;;;;;28.70;13.80;;;;;;;4.12;48.68;101910.84;5068338;23;20496;-76
2022/12/02 05:12:50;;;;;;;28.58;13.98;;;;;;;4.14;48.67;101906.22;5068665;28;20047;-76
2022/12/02 05:15:18;;;;;;;30.55;13.63;;;;;;;4.14;48.71;101906.22;5067140;28;20072;-76
2022/12/02 05:17:46;;;;;;;32.38;14.20;;;;;;;4.14;48.77;101908.06;5046728;28;20044;-76
2022/12/02 05:20:15;;;;;;;29.63;13.80;;;;;;;4.15;48.84;101901.69;5053433;28;20377;-76
2022/12/02 05:22:42;;;;;;;32.70;14.40;;;;;;;4.15;48.70;101901.69;5075286;28;20063;-76
2022/12/02 05:25:12;;;;;;;30.35;14.02;;;;;;;4.16;48.95;101908.88;5062894;28;20064;-76
2022/12/02 05:27:40;;;;;;;30.38;14.88;;;;;;;4.14;48.87;101902.66;5090502;28;20101;-76
2022/12/02 05:30:14;;;;;;;27.35;12.70;;;;;;;4.18;48.76;101903.38;5079546;28;20439;-76
2022/12/02 05:32:42;;;;;;;29.90;13.93;;;;;;;4.16;48.88;101901.63;5073070;28;20082;-76
2022/12/02 05:35:10;;;;;;;28.55;13.10;;;;;;;4.17;49.08;101910.63;5061029;28;20041;-76
2022/12/02 05:37:40;;;;;;;26.80;12.77;;;;;;;4.19;49.15;101899.72;5085091;28;20036;-76
2022/12/02 05:40:10;;;;;;;30.08;13.50;;;;;;;4.20;48.96;101902.38;5062617;28;20040;-76
2022/12/02 05:42:37;;;;;;;33.00;15.30;;;;;;;4.17;49.00;101897.09;5096245;28;20445;-76
2022/12/02 05:45:16;;;;;;;32.78;14.35;;;;;;;4.21;48.82;101903.25;5070570;28;20542;-76
2022/12/02 05:47:48;;;;;;;32.30;14.85;;;;;;;4.20;48.87;101896.06;5080399;28;20044;-76
2022/12/02 05:50:17;;;;;;;31.83;15.63;;;;;;;4.18;48.84;101896.13;5074814;28;20044;-76
2022/12/02 05:52:51;;;;;;;25.55;12.23;;;;;;;4.19;48.86;101889.78;5066561;28;20038;-75
2022/12/02 05:55:21;;;;;;;33.05;14.80;;;;;;;4.21;48.84;101887.00;5090467;28;20097;-75
2022/12/02 05:57:50;;;;;;;30.25;14.75;;;;;;;4.21;49.12;101895.13;5088408;28;20094;-76
2022/12/02 06:00:21;;;;;;;27.48;12.73;;;;;;;4.23;48.85;101887.78;5065618;28;20075;-75
2022/12/02 06:02:52;;;;;;;29.90;14.50;;;;;;;4.22;48.90;101888.78;5067234;28;20071;-76
2022/12/02 06:05:22;;;;;;;30.40;12.82;;;;;;;4.21;49.07;101885.19;5071294;28;20049;-75
2022/12/02 06:07:54;;;;;;;26.45;12.80;;;;;;;4.21;49.21;101896.00;5084415;28;20028;-75
2022/12/02 06:10:27;;;;;;;28.13;13.68;;;;;;;4.22;49.19;101897.78;5070754;28;20068;-75
2022/12/02 06:12:58;;;;;;;27.30;14.20;;;;;;;4.21;49.07;101890.59;5067111;28;20055;-75
2022/12/02 06:15:34;;;;;;;27.70;12.75;;;;;;;4.25;48.94;101897.63;5068741;28;20040;-75
2022/12/02 06:18:03;;;;;;;28.17;12.90;;;;;;;4.24;49.14;101890.44;5053248;28;20179;-75
2022/12/02 06:20:36;;;;;;;27.48;13.52;;;;;;;4.26;48.87;101896.69;5056627;28;20051;-76
2022/12/02 06:23:10;;;;;;;29.05;13.07;;;;;;;4.23;49.14;101890.50;5071335;28;20123;-75
2022/12/02 06:25:38;;;;;;;30.70;14.32;;;;;;;4.23;49.18;101885.97;5081777;28;20481;-76
2022/12/02 06:28:19;;;;;;;29.73;14.45;;;;;;;4.25;48.82;101892.19;5073472;28;20041;-76
2022/12/02 06:30:49;;;;;;;29.52;13.77;;;;;;;4.23;49.07;101896.81;5083359;28;20135;-76
2022/12/02 06:33:25;;;;;;;31.23;14.32;;;;;;;4.22;48.84;101889.66;5085680;28;20040;-76
2022/12/02 06:35:54;;;;;;;32.95;15.15;;;;;;;4.18;49.06;101884.41;5069788;28;20453;-76
2022/12/02 06:38:28;;;;;;;28.73;14.30;;;;;;;4.18;48.88;101892.53;5066168;28;20496;-75
2022/12/02 06:40:56;;;;;;;31.33;12.73;;;;;;;4.15;49.08;101886.31;5077455;28;20063;-76
2022/12/02 06:43:27;;;;;;;30.42;13.57;;;;;;;4.16;48.93;101888.06;5055165;28;20101;-75
2022/12/02 06:45:57;;;;;;;31.52;14.50;;;;;;;4.14;49.19;101892.66;5060303;28;20058;-76
2022/12/02 06:48:29;;;;;;;31.20;14.00;;;;;;;4.13;49.35;101884.63;5052442;28;20080;-75
2022/12/02 06:51:05;;;;;;;29.90;13.90;;;;;;;4.11;49.20;101892.81;5052439;28;20040;-75
2022/12/02 06:53:35;;;;;;;26.15;12.55;;;;;;;4.13;49.24;101890.06;5068200;28;20044;-75
2022/12/02 06:56:14;;;;;;;26.67;12.57;;;;;;;4.14;49.09;101894.53;5065786;28;20051;-79
2022/12/02 06:58:44;;;;;;;25.83;11.68;;;;;;;4.12;49.05;101896.41;5060791;28;20106;-78
2022/12/02 07:01:26;;;;;;;28.33;12.35;;;;;;;4.11;49.12;101897.38;5072679;28;20047;-78
2022/12/02 07:04:03;;;;;;;30.10;13.23;;;;;;;4.10;49.12;101884.75;5063180;28;20051;-76
2022/12/02 07:06:33;;;;;;;32.17;13.85;;;;;;;4.06;49.33;101886.72;5088644;28;20040;-76
2022/12/02 07:09:03;;;;;;;30.25;13.48;;;;;;;4.06;49.34;101884.00;5076235;28;20056;-76
2022/12/02 07:11:53;;;;;;;29.88;13.27;;;;;;;4.06;49.23;101875.88;5071675;28;20048;-74
2022/12/02 07:14:27;;;;;;;27.05;13.50;;;;;;;4.05;49.34;101881.38;5078334;28;20048;-74
2022/12/02 07:16:59;;;;;;;32.03;13.00;;;;;;;4.04;49.47;101876.91;5089095;28;20043;-75
2022/12/02 07:19:36;;;;;;;28.60;13.45;;;;;;;4.04;49.31;101883.22;5073470;28;20118;-74
2022/12/02 07:22:11;;;;;;;32.55;12.93;;;;;;;4.04;49.39;101882.34;5076798;28;20396;-74
2022/12/02 07:24:40;;;;;;;26.60;12.75;;;;;;;4.04;49.14;101877.78;5076271;28;20092;-74
2022/12/02 07:27:20;;;;;;;31.55;13.75;;;;;;;4.04;49.40;101885.03;5074154;28;20044;-73
2022/12/02 07:29:49;;;;;;;28.58;13.20;;;;;;;4.02;49.62;101889.63;5068925;28;20044;-74
2022/12/02 07:32:19;;;;;;;31.33;13.45;;;;;;;4.02;49.45;101890.53;5086459;28;20485;-75
2022/12/02 07:34:47;;;;;;;30.38;14.23;;;;;;;4.02;49.33;101886.94;5069470;28;20372;-75
2022/12/02 07:37:16;;;;;;;29.98;13.07;;;;;;;4.02;49.38;101887.81;5087615;28;20040;-75
2022/12/02 07:39:44;;;;;;;29.05;12.23;;;;;;;4.04;49.53;101898.59;5085448;28;20429;-76
2022/12/02 07:42:13;;;;;;;30.30;14.30;;;;;;;4.02;49.55;101887.81;5086824;28;20043;-75
2022/12/02 07:44:41;;;;;;;29.80;13.85;;;;;;;4.03;49.52;101889.56;5074550;28;20040;-75
2022/12/02 07:47:09;;;;;;;29.25;13.65;;;;;;;4.03;49.52;101888.69;5072814;28;20048;-74
2022/12/02 07:49:38;;;;;;;29.88;13.38;;;;;;;4.04;49.92;101880.50;5084957;28;20044;-75
2022/12/02 07:52:06;;;;;;;30.80;14.13;;;;;;;4.04;49.70;101885.94;5071108;28;20254;-75
2022/12/02 07:54:34;;;;;;;35.67;15.35;;;;;;;4.04;49.73;101879.63;5081222;28;20051;-75
2022/12/02 07:57:02;;;;;;;34.38;14.88;;;;;;;4.05;49.52;101881.38;5090338;28;20048;-76
2022/12/02 07:59:30;;;;;;;36.08;16.20;;;;;;;4.03;49.46;101869.72;5089848;28;20119;-77
2022/12/02 08:01:58;;;;;;;34.90;15.50;;;;;;;4.04;49.64;101883.22;5089797;28;20051;-76
2022/12/02 08:04:26;;;;;;;33.30;15.65;;;;;;;4.02;49.64;101876.09;5064493;28;20049;-79
2022/12/02 08:06:55;;;;;;;30.77;13.65;;;;;;;4.05;49.76;101879.56;5067592;28;20044;-78
2022/12/02 08:09:23;;;;;;;30.05;13.45;;;;;;;4.04;49.63;101871.50;5070273;28;20059;-79
2022/12/02 08:11:50;;;;;;;28.77;13.52;;;;;;;4.04;49.48;101874.22;5074203;28;20055;-78
2022/12/02 08:14:18;;;;;;;30.63;13.75;;;;;;;4.03;49.37;101869.72;5066640;28;20089;-79
2022/12/02 08:16:46;;;;;;;25.67;12.27;;;;;;;4.04;49.31;101868.78;5058415;28;20048;-79
2022/12/02 08:19:14;;;;;;;29.58;12.90;;;;;;;4.04;49.67;101868.78;5089035;28;20040;-79
2022/12/02 08:21:42;;;;;;;28.08;13.35;;;;;;;4.03;49.66;101872.44;5093366;28;20048;-80
2022/12/02 08:24:11;;;;;;;29.80;13.98;;;;;;;4.03;49.81;101867.91;5089129;28;20054;-78
2022/12/02 08:26:39;;;;;;;24.83;12.02;;;;;;;4.04;49.72;101871.50;5060190;28;20044;-78
2022/12/02 08:29:07;;;;;;;30.20;13.55;;;;;;;4.04;49.74;101871.50;5072611;28;20056;-79
2022/12/02 08:31:35;;;;;;;28.85;13.25;;;;;;;4.04;49.74;101874.22;5075078;28;20044;-78
2022/12/02 08:34:03;;;;;;;29.77;14.18;;;;;;;4.05;49.70;101873.25;5058557;28;20067;-79
2022/12/02 08:36:35;;;;;;;32.00;15.18;;;;;;;4.04;49.86;101872.38;5073334;28;20044;-77
2022/12/02 08:39:04;;;;;;;34.67;15.65;;;;;;;4.05;49.73;101868.72;5072043;28;20097;-78
2022/12/02 08:41:35;;;;;;;32.95;14.25;;;;;;;4.06;49.86;101858.75;5060155;28;20055;-77
2022/12/02 08:44:04;;;;;;;31.92;14.73;;;;;;;4.08;49.85;101870.41;5051628;28;20041;-78
2022/12/02 08:46:33;;;;;;;30.33;13.70;;;;;;;4.07;49.86;101866.81;5071365;28;20067;-77
2022/12/02 08:49:00;;;;;;;31.73;13.98;;;;;;;4.05;50.04;101870.56;5080018;28;20091;-81
2022/12/02 08:51:28;;;;;;;27.38;12.82;;;;;;;4.06;49.80;101865.03;5086916;28;20044;-77
2022/12/02 08:53:57;;;;;;;26.35;13.20;;;;;;;4.07;49.93;101869.50;5072102;28;20048;-78
2022/12/02 08:56:24;;;;;;;30.42;14.30;;;;;;;4.08;49.91;101876.69;5062983;28;20060;-78
2022/12/02 08:58:55;;;;;;;30.13;13.13;;;;;;;4.09;49.69;101869.44;5051711;28;20053;-80
2022/12/02 09:01:25;;;;;;;27.27;12.40;;;;;;;4.09;49.82;101878.47;5070215;28;20048;-77
2022/12/02 09:03:53;;;;;;;24.15;12.27;;;;;;;4.10;49.87;101876.63;5077482;28;20040;-77
2022/12/02 09:06:21;;;;;;;29.15;13.80;;;;;;;4.10;49.96;101882.06;5077033;28;20048;-77
2022/12/02 09:08:49;;;;;;;25.85;12.60;;;;;;;4.10;49.86;101872.09;5060611;28;20044;-78
2022/12/02 09:11:17;;;;;;;26.58;12.40;;;;;;;4.11;49.63;101876.56;5069420;28;20278;-76
2022/12/02 09:13:45;;;;;;;25.48;11.43;;;;;;;4.12;49.86;101877.47;5061731;28;20554;-78
2022/12/02 09:16:14;;;;;;;28.73;13.40;;;;;;;4.12;49.86;101880.16;5072065;28;20052;-78
2022/12/02 09:18:42;;;;;;;28.02;13.07;;;;;;;4.10;49.90;101879.34;5078037;28;20087;-78
2022/12/02 09:21:10;;;;;;;29.13;12.32;;;;;;;4.11;49.80;101873.88;5070140;28;20521;-78
2022/12/02 09:23:38;;;;;;;27.23;14.20;;;;;;;4.09;49.68;101883.88;5071051;28;20094;-78
2022/12/02 09:26:06;;;;;;;29.60;14.27;;;;;;;4.09;49.76;101877.59;5050792;28;20056;-79
2022/12/02 09:28:34;;;;;;;30.90;13.70;;;;;;;4.08;49.84;101881.22;5050136;28;20044;-78
2022/12/02 09:31:02;;;;;;;23.23;11.77;;;;;;;4.09;49.60;101883.00;5062957;28;20047;-78
2022/12/02 09:33:31;;;;;;;24.42;12.48;;;;;;;4.08;49.55;101879.41;5089151;28;20159;-78
2022/12/02 09:36:00;;;;;;;26.58;12.68;;;;;;;4.06;49.54;101880.41;5073055;28;20176;-78
2022/12/02 09:38:30;;;;;;;26.65;12.20;;;;;;;4.05;49.79;101871.44;5088349;28;20115;-79
2022/12/02 09:40:59;;;;;;;26.10;12.98;;;;;;;4.04;49.73;101868.78;5069877;28;20203;-78
2022/12/02 09:43:28;;;;;;;23.38;12.45;;;;;;;4.03;49.67;101872.44;5076645;28;20492;-77
2022/12/02 09:45:56;;;;;;;23.33;12.40;;;;;;;4.04;49.62;101866.97;5086139;28;20048;-78
2022/12/02 09:48:25;;;;;;;24.45;11.52;;;;;;;4.03;49.44;101864.31;5078755;28;20052;-78
2022/12/02 09:50:57;;;;;;;21.52;10.90;;;;;;;4.04;49.38;101869.66;5074578;28;21320;-80
2022/12/02 09:53:32;;;;;;;23.50;12.30;;;;;;;4.03;49.49;101865.19;5072592;28;20520;-78
2022/12/02 09:56:01;;;;;;;25.60;13.85;;;;;;;4.00;49.81;101875.28;5087829;28;20390;-77
2022/12/02 09:58:29;;;;;;;24.60;13.05;;;;;;;4.00;49.82;101868.03;5067535;28;20040;-78
2022/12/02 10:00:57;;;;;;;26.05;12.57;;;;;;;3.99;49.75;101860.84;5079014;28;20500;-78
2022/12/02 10:03:27;;;;;;;23.50;12.30;;;;;;;4.00;49.65;101867.16;5077458;28;20067;-78
2022/12/02 10:06:01;;;;;;;25.17;11.88;;;;;;;4.03;49.40;101867.03;5088630;28;20123;-79
2022/12/02 10:08:29;;;;;;;23.75;12.80;;;;;;;3.98;49.69;101864.50;5078801;28;20097;-79
2022/12/02 10:10:59;;;;;;;22.75;11.73;;;;;;;3.97;49.71;101864.59;5072217;28;20050;-78
2022/12/02 10:13:28;;;;;;;21.92;12.30;;;;;;;3.96;49.49;101860.13;5083306;28;20040;-78
2022/12/02 10:15:58;;;;;;;25.75;12.27;;;;;;;3.97;49.45;101859.19;5070118;28;20052;-80
2022/12/02 10:18:29;;;;;;;20.05;10.77;;;;;;;3.99;49.42;101865.38;5074280;28;20044;-78
2022/12/02 10:20:58;;;;;;;21.85;11.18;;;;;;;3.99;49.37;101866.25;5064635;28;20072;-78
2022/12/02 10:23:27;;;;;;;22.88;11.70;;;;;;;3.97;49.40;101860.06;5073478;28;20048;-78
2022/12/02 10:26:09;;;;;;;23.42;12.13;;;;;;;3.97;49.49;101861.88;5068200;28;20098;-77
2022/12/02 10:28:39;;;;;;;22.70;12.13;;;;;;;3.97;49.49;101861.88;5071575;28;20575;-78
2022/12/02 10:31:11;;;;;;;22.17;12.05;;;;;;;3.99;49.42;101865.38;5077242;28;20450;-78
2022/12/02 10:33:41;;;;;;;20.55;10.43;;;;;;;3.96;49.48;101862.81;5078514;28;20044;-77
2022/12/02 10:36:10;;;;;;;22.70;11.85;;;;;;;3.97;49.36;101864.59;5071019;28;20044;-78
2022/12/02 10:38:41;;;;;;;19.05;10.85;;;;;;;3.98;49.29;101863.63;5090798;28;20523;-78
2022/12/02 10:41:28;;;;;;;19.77;10.82;;;;;;;3.99;48.99;101868.97;5072899;28;20043;-78
2022/12/02 10:44:13;;;;;;;20.52;11.07;;;;;;;4.00;48.87;101859.03;5070821;28;20523;-76
2022/12/02 10:46:40;;;;;;;19.00;10.80;;;;;;;3.97;49.62;101854.66;5084110;28;20052;-78
2022/12/02 10:49:29;;;;;;;21.10;11.18;;;;;;;4.00;48.82;101853.59;5065391;28;20048;-78
2022/12/02 10:52:04;;;;;;;19.63;10.20;;;;;;;3.98;48.99;101847.38;5081755;28;20047;-78
2022/12/02 10:54:34;;;;;;;18.80;10.75;;;;;;;3.98;49.30;101852.78;5086304;28;20047;-78
2022/12/02 10:57:13;;;;;;;18.85;11.50;;;;;;;3.96;49.02;101855.59;5075054;28;20048;-78
2022/12/02 10:59:41;;;;;;;19.75;11.32;;;;;;;3.93;49.14;101842.16;5073558;28;20135;-78
2022/12/02 11:02:19;;;;;;;18.15;10.93;;;;;;;3.96;48.75;101842.03;5068381;28;20044;-79
2022/12/02 11:04:49;;;;;;;19.83;11.38;;;;;;;3.93;49.03;101846.69;5083143;28;20036;-78
2022/12/02 11:07:21;;;;;;;19.92;11.65;;;;;;;3.93;48.95;101844.00;5079906;28;20508;-76
2022/12/02 11:09:54;;;;;;;17.98;10.75;;;;;;;3.93;48.80;101841.28;5075769;23;20051;-72
2022/12/02 11:12:35;;;;;;;18.98;11.13;;;;;;;3.92;48.62;101840.41;5030313;28;20051;-71
2022/12/02 11:15:30;;;;;;;18.98;10.52;;;;;;;3.91;48.85;101837.75;5045921;28;20082;-71
2022/12/02 11:17:58;;;;;;;18.55;10.18;;;;;;;3.89;49.16;101836.97;5047268;28;20524;-72
2022/12/02 11:20:32;;;;;;;20.00;10.20;;;;;;;3.92;48.88;101831.41;5064713;28;20787;-72
2022/12/02 11:23:20;;;;;;;18.65;10.23;;;;;;;3.91;48.39;101832.34;5036513;28;20660;-73
2022/12/02 11:26:15;;;;;;;21.58;11.38;;;;;;;3.87;48.73;101828.91;5042782;28;20045;-72
2022/12/02 11:29:16;;;;;;;21.25;11.35;;;;;;;3.90;48.49;101823.34;5023061;28;20056;-72
2022/12/02 11:32:03;;;;;;;21.95;12.52;;;;;;;3.89;48.57;101823.44;5065771;28;20048;-72
2022/12/02 11:34:47;;;;;;;20.45;11.05;;;;;;;3.91;48.52;101822.38;5055829;28;20041;-72